M I D A S
Marine Information and Data Acquisition System
Tripno 142 of the Zeeleeuw from 2001-07-19 06:59:27 to 2001-07-19 14:35:00
Back to CruiseResearch ActivitiesStationsMapUnderway DataData graphs

EquipmentUnitsComment
TimeDGPSUTC
LatitudeDGPSDM.mWGS84
LongitudeDGPSDM.mWGS84
HeadingGyrodeg 
SOGDGPSknotsSpeed over ground
COGDGPSdegCourse over ground
DepthEcho soundermeters200 kHz
Missing or incorrect values are displayed as -999
Navigation data collected by the RV Zeeleeuw from 2001-07-19 06:59:27 to 2001-07-19 14:35:00
                                                                                    Next 1000 lines
Time Latitude Longitude Heading SOG COG Depth
2001-07-19 06:59:37 51°13.979 2°55.544 339 7.8 336.8 6
2001-07-19 06:59:41 51°13.987 2°55.538 339 7.8 336.8 6.1
2001-07-19 06:59:47 51°13.998 2°55.53 338.8 7.8 336.5 6
2001-07-19 06:59:51 51°14.006 2°55.524 338.5 7.8 336.2 6
2001-07-19 06:59:57 51°14.018 2°55.516 338.5 7.8 336 5.9
2001-07-19 07:00:01 51°14.026 2°55.51 338.5 7.8 335.9 5.9
2001-07-19 07:00:07 51°14.038 2°55.502 338 7.8 335.5 5.9
2001-07-19 07:00:11 51°14.046 2°55.496 337.5 7.8 335.1 5.9
2001-07-19 07:00:17 51°14.057 2°55.487 336.7 7.8 334.4 5.9
2001-07-19 07:00:21 51°14.065 2°55.481 336.2 7.7 334 5.9
2001-07-19 07:00:27 51°14.076 2°55.472 336.2 7.7 333.8 5.9
2001-07-19 07:00:31 51°14.084 2°55.466 336 7.7 333.7 5.9
2001-07-19 07:00:37 51°14.095 2°55.456 335.5 7.7 333.2 5.9
2001-07-19 07:00:41 51°14.103 2°55.45 335 7.7 332.9 5.9
2001-07-19 07:00:47 51°14.114 2°55.441 335.2 7.7 332.7 5.9
2001-07-19 07:00:51 51°14.122 2°55.435 335.5 7.6 332.9 5.2
2001-07-19 07:00:57 51°14.133 2°55.426 336.2 7.6 333.5 5.8
2001-07-19 07:04:27 51°14.432 2°54.86 307.8 9.9 301.2 6.1
2001-07-19 07:04:31 51°14.439 2°54.846 311.3 9.9 303.3 6.2
2001-07-19 07:04:37 51°14.449 2°54.826 314.7 9.9 307.1 6.2
2001-07-19 07:04:41 51°14.456 2°54.812 316.5 9.9 308.6 6.2
2001-07-19 07:04:47 51°14.467 2°54.792 317.2 10 310.2 6.2
2001-07-19 07:04:51 51°14.474 2°54.778 317.5 10 310.6 6.2
2001-07-19 07:04:57 51°14.485 2°54.758 316.3 10.1 310 6.2
2001-07-19 07:05:01 51°14.492 2°54.743 314.3 10.1 308.6 6.2
2001-07-19 07:05:07 51°14.501 2°54.721 311.8 10.2 306 6.2
2001-07-19 07:05:11 51°14.508 2°54.706 310.2 10.2 304.9 6.3
2001-07-19 07:05:17 51°14.517 2°54.684 309.8 10.2 304 6.3
2001-07-19 07:05:21 51°14.524 2°54.669 310.3 10.2 304.3 6.3
2001-07-19 07:05:27 51°14.534 2°54.647 311.5 10.2 305.4 6.3
2001-07-19 07:05:31 51°14.541 2°54.633 313 10.2 306.6 6.3
2001-07-19 07:05:37 51°14.551 2°54.612 314.3 10.2 308.3 6.1
2001-07-19 07:05:41 51°14.559 2°54.598 315.5 10.2 309.2 6.2
2001-07-19 07:05:47 51°14.57 2°54.577 316.5 10.3 310.5 6.1
2001-07-19 07:05:51 51°14.578 2°54.563 317.3 10.4 311.2 6
2001-07-19 07:05:57 51°14.59 2°54.543 317.7 10.4 312 6.1
2001-07-19 07:06:01 51°14.597 2°54.529 318 10.5 312.3 6
2001-07-19 07:06:07 51°14.609 2°54.508 318.3 10.6 312.6 6
2001-07-19 07:06:11 51°14.617 2°54.494 317.8 10.6 312.3 6
2001-07-19 07:06:17 51°14.629 2°54.473 317.2 10.6 311.6 6
2001-07-19 07:06:21 51°14.637 2°54.458 316 10.7 310.6 6
2001-07-19 07:06:27 51°14.647 2°54.436 314.3 10.7 308.7 6
2001-07-19 07:06:31 51°14.654 2°54.42 312.7 10.7 307.3 6.1
2001-07-19 07:06:37 51°14.665 2°54.397 311.8 10.8 306.1 6.3
2001-07-19 07:06:41 51°14.672 2°54.382 311.3 10.8 305.7 6.2
2001-07-19 07:06:47 51°14.682 2°54.358 310.8 10.8 305 6.2
2001-07-19 07:06:51 51°14.689 2°54.342 310.2 10.8 304.6 6.2
2001-07-19 07:06:57 51°14.699 2°54.319 310 10.8 304.5 6.3
2001-07-19 07:07:01 51°14.706 2°54.303 311.3 10.8 305.2 6.2
2001-07-19 07:07:07 51°14.717 2°54.281 313.3 10.8 307.1 6.3
2001-07-19 07:07:11 51°14.724 2°54.266 314.3 10.8 308 6.2
2001-07-19 07:07:17 51°14.736 2°54.244 314.5 10.8 308.9 6.1
2001-07-19 07:07:21 51°14.743 2°54.229 314.7 10.8 308.9 6.2
2001-07-19 07:07:27 51°14.754 2°54.206 313.8 10.8 308.4 6
2001-07-19 07:07:31 51°14.761 2°54.191 313.2 10.8 307.7 6.1
2001-07-19 07:07:37 51°14.772 2°54.168 312.2 10.8 306.6 6.1
2001-07-19 07:07:41 51°14.779 2°54.152 311.2 10.8 305.8 5.9
2001-07-19 07:07:47 51°14.79 2°54.129 310.8 10.8 305.4 5.8
2001-07-19 07:07:51 51°14.796 2°54.113 310.7 10.9 305.2 5.8
2001-07-19 07:07:57 51°14.807 2°54.09 311.2 10.8 305.7 5.7
2001-07-19 07:08:01 51°14.814 2°54.075 312.7 10.8 306.5 5.7
2001-07-19 07:08:07 51°14.826 2°54.053 314.7 10.8 308.3 5.6
2001-07-19 07:08:11 51°14.833 2°54.038 316.2 10.8 309.4 5.5
2001-07-19 07:08:17 51°14.844 2°54.016 316.5 10.8 309.9 5.5
2001-07-19 07:08:21 51°14.852 2°54.001 315.8 10.8 309.6 5.4
2001-07-19 07:08:27 51°14.863 2°53.978 314.2 10.9 307.8 5.5
2001-07-19 07:08:31 51°14.87 2°53.962 311.8 10.9 306.1 5.5
2001-07-19 07:08:37 51°14.879 2°53.938 310 10.9 303.6 5.5
2001-07-19 07:08:41 51°14.886 2°53.922 309.2 10.9 302.7 5.4
2001-07-19 07:08:47 51°14.896 2°53.898 309.5 10.9 302.7 5.4
2001-07-19 07:08:51 51°14.903 2°53.882 310.7 10.9 303.2 5.4
2001-07-19 07:08:57 51°14.913 2°53.859 312 10.8 304.7 5.4
2001-07-19 07:09:01 51°14.92 2°53.843 313.2 10.8 305.4 5.5
2001-07-19 07:09:07 51°14.931 2°53.82 313.8 10.7 306.7 5.4
2001-07-19 07:09:11 51°14.939 2°53.805 315 10.7 307.3 5.6
2001-07-19 07:09:17 51°14.95 2°53.783 315.8 10.7 308.5 5.5
2001-07-19 07:09:21 51°14.957 2°53.769 316.8 10.7 309.2 5.5
2001-07-19 07:09:27 51°14.969 2°53.747 317.8 10.7 310.1 5.6
2001-07-19 07:09:32 51°14.979 2°53.729 318.2 10.7 310.7 5.6
2001-07-19 07:09:37 51°14.988 2°53.711 318.7 10.7 310.9 5.6
2001-07-19 07:09:41 51°14.996 2°53.697 318.7 10.8 311 5.6
2001-07-19 07:09:47 51°15.008 2°53.675 318 10.8 310.5 5.6
2001-07-19 07:09:51 51°15.015 2°53.66 316.5 10.8 309.5 5.6
2001-07-19 07:09:57 51°15.025 2°53.638 315 10.4 307.9 5.6
2001-07-19 07:10:01 51°15.032 2°53.625 313.7 9.9 306.9 5.6
2001-07-19 07:10:07 51°15.04 2°53.605 312 9.2 304.9 5.7
2001-07-19 07:10:11 51°15.045 2°53.592 310.7 8.8 303.5 5.8
2001-07-19 07:10:17 51°15.052 2°53.575 309 8.2 301.3 5.8
2001-07-19 07:10:21 51°15.056 2°53.563 308.2 7.8 300.5 5.9
2001-07-19 07:10:27 51°15.062 2°53.547 308 7.3 299.5 5.9
2001-07-19 07:10:31 51°15.066 2°53.536 308 7 299.1 6
2001-07-19 07:10:37 51°15.071 2°53.522 307.8 6.5 298.4 5.9
2001-07-19 07:10:41 51°15.074 2°53.512 308 6.2 297.9 5.9
2001-07-19 07:10:47 51°15.078 2°53.5 308 5.7 297.5 5.9
2001-07-19 07:10:51 51°15.081 2°53.491 308.3 5.4 297.4 5.9
2001-07-19 07:10:57 51°15.084 2°53.48 308.5 5.1 297.2 5.9
2001-07-19 07:11:01 51°15.087 2°53.473 308.3 4.8 297.6 5.9
2001-07-19 07:11:07 51°15.09 2°53.463 310 4.2 297.6 6
2001-07-19 07:11:11 51°15.091 2°53.458 313.7 3.7 298.9 6
2001-07-19 07:11:17 51°15.093 2°53.452 318.3 2.9 300.3 6
2001-07-19 07:11:21 51°15.095 2°53.449 323.3 2.4 301.5 6
2001-07-19 07:11:27 51°15.096 2°53.446 328.5 1.7 300.8 6
2001-07-19 07:11:31 51°15.096 2°53.445 332.7 1.2 297 6
2001-07-19 07:11:37 51°15.096 2°53.443 336.8 0.7 287 6
2001-07-19 07:11:41 51°15.096 2°53.443 341 0.5 271.7 6.1
2001-07-19 07:11:47 51°15.094 2°53.443 346.2 0.7 197.8 6.1
2001-07-19 07:11:51 51°15.093 2°53.443 351.2 1.1 178.6 5.9
2001-07-19 07:11:57 51°15.09 2°53.443 356.5 1.5 176.3 5.9
2001-07-19 07:12:03 51°15.086 2°53.443 1.3 1.9 177.6 -999
2001-07-19 07:12:07 51°15.084 2°53.443 6.8 2 178.4 -999
2001-07-19 07:12:13 51°15.081 2°53.442 11 1.9 186.6 -999
2001-07-19 07:12:17 51°15.079 2°53.442 13.7 1.9 186.2 -999
2001-07-19 07:12:23 51°15.076 2°53.442 16.3 2 187.1 -999
2001-07-19 07:12:27 51°15.074 2°53.441 19.5 1.9 189.6 -999
2001-07-19 07:12:33 51°15.071 2°53.44 20.8 1.8 190.7 -999
2001-07-19 07:12:37 51°15.069 2°53.439 22.5 1.8 191.7 -999
2001-07-19 07:12:43 51°15.066 2°53.438 23.5 1.8 193.3 -999
2001-07-19 07:12:47 51°15.064 2°53.438 24.3 1.7 191.1 -999
2001-07-19 07:12:53 51°15.062 2°53.437 25.8 1.7 193.6 -999
2001-07-19 07:12:57 51°15.06 2°53.436 27 1.7 191.6 -999
2001-07-19 07:13:03 51°15.057 2°53.435 28 1.6 194.1 -999
2001-07-19 07:13:07 51°15.056 2°53.435 29.2 1.6 192.8 -999
2001-07-19 07:13:13 51°15.053 2°53.434 30.3 1.5 193.8 -999
2001-07-19 07:13:18 51°15.052 2°53.433 31.5 1.5 192 -999
2001-07-19 07:13:23 51°15.05 2°53.433 32.2 1.4 191.6 -999
2001-07-19 07:13:27 51°15.048 2°53.432 33.2 1.4 191.7 -999
2001-07-19 07:13:32 51°15.046 2°53.432 34.5 1.4 190.9 6.1
2001-07-19 07:13:37 51°15.044 2°53.431 35.2 1.4 189.9 6.1
2001-07-19 09:10:31 51°17.627 2°52.459 194 13.1 189.2 8.2
2001-07-19 09:10:36 51°17.61 2°52.451 199.8 13 192.3 8.2
2001-07-19 09:10:41 51°17.592 2°52.444 199.5 12.9 194.2 8.2
2001-07-19 09:10:46 51°17.575 2°52.435 202.3 13 195.7 8.2
2001-07-19 09:10:51 51°17.558 2°52.428 200.7 12.9 195.4 8.3
2001-07-19 09:10:55 51°17.544 2°52.421 202 12.8 196.7 8.3
2001-07-19 09:11:01 51°17.523 2°52.412 200.7 12.9 195.7 8.2
2001-07-19 09:11:05 51°17.509 2°52.406 201.3 13.1 195.5 8.3
2001-07-19 09:11:11 51°17.489 2°52.397 201.7 13 195.4 8.3
2001-07-19 09:11:15 51°17.475 2°52.393 196.5 12.9 193.1 8.4
2001-07-19 09:11:21 51°17.453 2°52.388 195 13.1 189.6 8.3
2001-07-19 09:11:25 51°17.438 2°52.386 190.5 13.2 186.7 8.3
2001-07-19 09:11:31 51°17.417 2°52.384 189.2 13.1 184 8.4
2001-07-19 09:11:35 51°17.402 2°52.385 186.3 13.1 181.7 8.3
2001-07-19 09:11:41 51°17.38 2°52.383 187.7 13.1 181.4 8.3
2001-07-19 09:11:45 51°17.366 2°52.384 184.3 13.1 179.5 8.3
2001-07-19 09:11:51 51°17.344 2°52.386 182.3 13 177.6 8.2
2001-07-19 09:11:55 51°17.33 2°52.388 181.5 13 176.7 8.3
2001-07-19 09:12:01 51°17.308 2°52.388 183.8 13.1 177.7 8.3
2001-07-19 09:12:05 51°17.293 2°52.39 183.2 13.2 177.6 8.3
2001-07-19 09:12:11 51°17.271 2°52.39 184.8 13.2 178.6 8.3
2001-07-19 09:12:16 51°17.253 2°52.392 182.3 13.1 177.7 8.2
2001-07-19 09:12:21 51°17.235 2°52.395 180.8 13.2 175.4 8.2
2001-07-19 09:12:25 51°17.221 2°52.398 178.5 13.1 173.9 8.1
2001-07-19 09:12:31 51°17.199 2°52.406 173 13.1 169.5 8
2001-07-19 09:12:36 51°17.181 2°52.411 174.3 13.5 169 7.9
2001-07-19 09:12:41 51°17.162 2°52.418 174 13.6 168 7.9
2001-07-19 09:12:46 51°17.145 2°52.426 170 13.4 166 7.9
2001-07-19 09:12:51 51°17.128 2°52.436 166.3 13.1 161.8 7.9
2001-07-19 09:12:55 51°17.114 2°52.446 163 13.1 159.1 7.8
2001-07-19 09:13:01 51°17.094 2°52.461 160.8 13.3 155.6 7.7
2001-07-19 09:13:05 51°17.081 2°52.474 155.7 13.5 151.8 7.7
2001-07-19 09:13:11 51°17.062 2°52.492 153 13.5 148.8 7.7
2001-07-19 09:13:15 51°17.05 2°52.505 152.7 13.4 147.6 7.7
2001-07-19 09:13:21 51°17.031 2°52.525 151.2 13.4 146.4 7.7
2001-07-19 09:13:25 51°17.019 2°52.538 150 13.5 145.8 7.7
2001-07-19 09:13:31 51°16.999 2°52.557 153.5 13.6 147.7 7.8
2001-07-19 09:13:35 51°16.986 2°52.57 154.7 13.7 148.3 8.1
2001-07-19 09:13:41 51°16.966 2°52.589 154.3 13.9 149 8.3
2001-07-19 09:13:45 51°16.953 2°52.602 152.3 14 148.3 8.1
2001-07-19 09:13:51 51°16.933 2°52.62 154.8 14 149.9 7.8
2001-07-19 09:13:55 51°16.92 2°52.631 157.3 13.8 151.4 7.8
2001-07-19 09:14:01 51°16.9 2°52.647 158.2 13.5 153.4 7.5
2001-07-19 09:14:05 51°16.886 2°52.656 161.2 13.4 154.8 7.4
2001-07-19 09:14:11 51°16.865 2°52.67 163 13.5 157 7.4
2001-07-19 09:14:15 51°16.851 2°52.679 162.3 13.6 157.1 7.6
2001-07-19 09:14:21 51°16.83 2°52.693 163 13.6 157.6 7.7
2001-07-19 09:14:25 51°16.816 2°52.703 162 13.5 156.6 7.9
2001-07-19 09:14:31 51°16.796 2°52.719 159.3 13.6 154.5 7.7
2001-07-19 09:14:36 51°16.779 2°52.731 163.2 13.6 155.5 7.5
2001-07-19 09:14:41 51°16.763 2°52.746 157.3 13.3 152.9 7.8
2001-07-19 09:14:45 51°16.75 2°52.758 153.5 13.3 149.9 8.3
2001-07-19 09:14:51 51°16.732 2°52.779 152.5 13.5 146.3 8.5
2001-07-19 09:14:55 51°16.72 2°52.795 145.2 13.7 142.6 8.6
2001-07-19 09:15:01 51°16.704 2°52.82 141.8 13.7 137.5 9
2001-07-19 09:15:05 51°16.693 2°52.837 139.8 13.5 135.5 9.1
2001-07-19 09:15:11 51°16.676 2°52.861 142.7 13.7 136.9 9.3
2001-07-19 09:15:16 51°16.661 2°52.881 144.7 13.9 138.9 9.4
2001-07-19 09:15:21 51°16.646 2°52.899 148.8 13.7 141.4 9.5
2001-07-19 09:15:25 51°16.635 2°52.911 148.8 13.2 143.5 9.5
2001-07-19 09:15:31 51°16.616 2°52.934 148.2 13.5 142.9 9.4
2001-07-19 09:15:37 51°16.597 2°52.955 152 13.9 145.2 9.5
2001-07-19 09:15:41 51°16.584 2°52.968 152.5 13.8 146.2 9.7
2001-07-19 09:15:45 51°16.572 2°52.981 152.7 13.7 146.9 9.8
2001-07-19 09:15:51 51°16.553 2°53.002 150.8 13.7 145.9 9.9
2001-07-19 09:15:56 51°16.537 2°53.019 151.5 13.7 146 10
2001-07-19 09:16:01 51°16.522 2°53.035 151.8 13.4 146.4 10.1
2001-07-19 09:16:05 51°16.508 2°53.047 155 13.5 148 10.2
2001-07-19 09:16:11 51°16.489 2°53.066 155.3 13.8 148.5 10.1
2001-07-19 09:16:15 51°16.476 2°53.079 153.3 13.7 148.6 10.1
2001-07-19 09:16:21 51°16.456 2°53.099 152.5 13.9 147.4 10.1
2001-07-19 09:16:25 51°16.444 2°53.114 151.8 14.1 146.3 10.3
2001-07-19 09:16:31 51°16.425 2°53.135 149.5 13.9 144.6 10.4
2001-07-19 09:16:36 51°16.41 2°53.152 150.3 13.7 144.7 10.3
2001-07-19 09:16:41 51°16.393 2°53.169 152.8 13.8 146.1 10.3
2001-07-19 09:16:45 51°16.38 2°53.183 153.3 14 146.9 10.3
2001-07-19 09:16:51 51°16.361 2°53.202 154.2 14 147.5 10.4
2001-07-19 09:16:55 51°16.348 2°53.216 152.3 13.8 146.7 10.4
2001-07-19 09:17:01 51°16.328 2°53.238 150.5 14.1 145 10.4
2001-07-19 09:17:05 51°16.315 2°53.253 151.3 14.3 144.9 10.4
2001-07-19 09:17:11 51°16.297 2°53.275 149.5 14.1 144 10.3
2001-07-19 09:17:16 51°16.281 2°53.292 150.7 14.1 144.8 10.3
2001-07-19 09:17:21 51°16.265 2°53.31 150.8 14.1 145.1 10.3
2001-07-19 09:17:25 51°16.252 2°53.323 153.3 14 146.3 10.3
2001-07-19 09:17:31 51°16.232 2°53.344 153.5 14 147 10.2
2001-07-19 09:17:35 51°16.218 2°53.357 154 14.2 147.3 10.2
2001-07-19 09:17:41 51°16.199 2°53.376 153.5 13.8 147.6 10.2
2001-07-19 09:17:46 51°16.185 2°53.39 154.3 12.8 147.7 10.3
2001-07-19 09:17:51 51°16.172 2°53.405 154.7 12 147.2 10.2
2001-07-19 09:17:56 51°16.158 2°53.418 155.2 11.6 147.7 10.2
2001-07-19 09:18:01 51°16.146 2°53.43 156.3 10.7 148.1 10.3
2001-07-19 09:18:05 51°16.137 2°53.438 158.3 10.1 149.2 10.3
2001-07-19 09:18:11 51°16.124 2°53.449 160.8 9.2 150.9 10.3
2001-07-19 09:18:15 51°16.116 2°53.455 165.3 8.6 153 10.3
2001-07-19 09:18:21 51°16.104 2°53.463 168.7 7.8 156.4 10.2
2001-07-19 09:18:25 51°16.097 2°53.467 172.7 7.4 158.7 10.2
2001-07-19 09:18:31 51°16.086 2°53.472 175.3 6.7 161.7 10.2
2001-07-19 09:18:36 51°16.078 2°53.475 179.3 6.2 164.5 10.2
2001-07-19 09:18:41 51°16.071 2°53.478 182.5 5.7 165.5 10.1
2001-07-19 09:18:57 51°16.054 2°53.489 178.8 3.9 156.3 10.2
2001-07-19 09:19:03 51°16.049 2°53.493 174.3 3.5 150.3 10.2
2001-07-19 09:19:07 51°16.047 2°53.497 169.5 3.1 142.6 10.2
2001-07-19 09:19:13 51°16.044 2°53.502 165 2.7 134.5 10.2
2001-07-19 09:21:53 51°16.036 2°53.621 163.2 1.8 108.5 10.3
2001-07-19 09:21:59 51°16.035 2°53.625 165.5 1.8 109.2 10.3
2001-07-19 09:22:03 51°16.034 2°53.628 167.8 1.8 111.2 10.2
2001-07-19 09:22:09 51°16.033 2°53.633 170.2 1.8 112.3 10.2
2001-07-19 09:22:13 51°16.032 2°53.636 172.2 1.8 113.1 10
2001-07-19 09:22:19 51°16.031 2°53.64 173.8 1.8 113.5 10.1
2001-07-19 09:22:23 51°16.03 2°53.643 175.5 1.8 113.5 10.1
2001-07-19 09:22:29 51°16.029 2°53.647 177.5 1.7 113.7 10.1
2001-07-19 09:22:33 51°16.028 2°53.65 179.5 1.7 114.1 10.1
2001-07-19 09:22:39 51°16.027 2°53.654 181.2 1.7 114.8 10.2
2001-07-19 09:22:43 51°16.026 2°53.657 182.8 1.7 115.1 10.2
2001-07-19 09:22:49 51°16.025 2°53.66 184.2 1.6 114.8 10.2
2001-07-19 09:22:53 51°16.024 2°53.663 185.8 1.6 115.2 10.2
2001-07-19 09:22:59 51°16.023 2°53.667 187.2 1.6 114.1 10.2
2001-07-19 09:23:03 51°16.023 2°53.669 188.3 1.5 113.9 10.2
2001-07-19 09:23:09 51°16.022 2°53.673 189.5 1.5 113.9 10.1
2001-07-19 09:23:13 51°16.021 2°53.675 191 1.5 113.8 10.1
2001-07-19 09:23:19 51°16.02 2°53.679 192 1.5 114.4 10.1
2001-07-19 09:23:23 51°16.019 2°53.681 194.2 1.5 115 10.1
2001-07-19 09:23:29 51°16.018 2°53.684 196.2 1.5 114.9 10.1
2001-07-19 09:23:33 51°16.017 2°53.687 197.8 1.4 115.2 10.1
2001-07-19 09:23:39 51°16.016 2°53.69 199.3 1.5 113.9 10.1
2001-07-19 09:23:43 51°16.016 2°53.693 200.3 1.5 113.9 10
2001-07-19 09:23:49 51°16.015 2°53.696 200.3 1.5 114.3 9.9
2001-07-19 09:23:53 51°16.014 2°53.699 201.3 1.5 113.4 10
2001-07-19 09:23:59 51°16.013 2°53.702 201.8 1.4 112.2 10
2001-07-19 09:24:03 51°16.013 2°53.705 202.3 1.5 111.2 10.1
2001-07-19 09:24:09 51°16.012 2°53.708 203.3 1.4 111.4 10.1
2001-07-19 09:24:13 51°16.011 2°53.711 203.5 1.4 119 10
2001-07-19 09:24:19 51°16.009 2°53.714 204.2 1.5 136.6 10.1
2001-07-19 09:24:24 51°16.006 2°53.715 203.5 1.8 148.9 10
2001-07-19 09:24:29 51°16.003 2°53.716 202.5 2.2 162.5 10
2001-07-19 09:24:33 51°16 2°53.717 200.7 2.5 166.6 10
2001-07-19 09:24:39 51°15.994 2°53.718 198.8 3.1 168.6 10
2001-07-19 09:24:43 51°15.99 2°53.72 194.7 3.4 166.9 10
2001-07-19 09:24:49 51°15.984 2°53.724 187.8 3.8 164.4 10
2001-07-19 09:24:53 51°15.98 2°53.727 181.2 4 160.8 10
2001-07-19 09:24:59 51°15.973 2°53.732 173 4.3 153.4 10.1
2001-07-19 09:25:03 51°15.969 2°53.737 165 4.5 149 10.2
2001-07-19 09:25:09 51°15.963 2°53.746 157.7 4.8 140.7 10.2
2001-07-19 09:25:13 51°15.96 2°53.753 149.2 5 134.7 10.2
2001-07-19 09:25:19 51°15.955 2°53.765 140.3 5.3 125.9 10.2
2001-07-19 09:25:23 51°15.952 2°53.774 131.2 5.7 118.9 10.1
2001-07-19 09:25:29 51°15.948 2°53.79 121.5 6.3 112.7 10.1
2001-07-19 09:25:33 51°15.946 2°53.803 115.2 6.8 108.1 10
2001-07-19 09:25:39 51°15.944 2°53.824 107.8 7.5 101.4 9.9
2001-07-19 09:25:43 51°15.943 2°53.838 101.7 8 98.8 9.9
2001-07-19 09:25:49 51°15.943 2°53.861 96.7 8.5 91.9 9.8
2001-07-19 09:25:53 51°15.944 2°53.877 89.3 8.7 87.8 9.8
2001-07-19 09:25:59 51°15.947 2°53.901 82.7 9.1 80.6 9.8
2001-07-19 09:26:03 51°15.951 2°53.917 75.8 9.3 75.5 9.7
2001-07-19 09:26:09 51°15.956 2°53.94 69.3 9.5 69.4 9.8
2001-07-19 09:26:13 51°15.962 2°53.955 63.5 9.7 63.4 9.8
2001-07-19 09:26:19 51°15.971 2°53.976 56 9.8 57.5 9.8
2001-07-19 09:26:23 51°15.979 2°53.989 49.7 9.8 52.6 9.7
2001-07-19 09:26:29 51°15.99 2°54.007 43.7 9.8 46.2 9.7
2001-07-19 09:26:33 51°15.999 2°54.017 37.7 9.7 41.3 9.8
2001-07-19 09:26:39 51°16.013 2°54.032 31.2 9.8 36.1 9.7
2001-07-19 09:26:43 51°16.022 2°54.041 29 9.8 33.3 9.6
2001-07-19 09:26:49 51°16.036 2°54.054 27.2 9.9 31.4 9.7
2001-07-19 09:26:53 51°16.046 2°54.063 26 10 30.6 9.5
2001-07-19 09:26:59 51°16.061 2°54.077 25.8 10.1 30.3 9.5
2001-07-19 09:27:03 51°16.07 2°54.085 25.3 10.2 29.8 9.5
2001-07-19 09:27:09 51°16.086 2°54.099 25.2 10.3 28.9 9.6
2001-07-19 09:27:13 51°16.096 2°54.107 23.7 10.4 28 9.8
2001-07-19 09:27:19 51°16.112 2°54.119 22.5 10.4 26 10
2001-07-19 09:27:23 51°16.122 2°54.127 21.5 10.5 24.9 10
2001-07-19 09:27:29 51°16.139 2°54.138 19.8 10.6 23.7 10.1
2001-07-19 09:27:33 51°16.15 2°54.145 18.8 10.6 23 10.1
2001-07-19 09:27:39 51°16.166 2°54.156 18.3 10.7 22.8 10
2001-07-19 09:27:43 51°16.177 2°54.163 19.2 10.6 22.8 10
2001-07-19 09:27:49 51°16.193 2°54.174 19.2 10.6 22.9 10
2001-07-19 09:27:53 51°16.204 2°54.181 19 10.7 22.6 10.1
2001-07-19 09:27:59 51°16.221 2°54.192 18.5 10.7 22.6 10.1
2001-07-19 09:28:03 51°16.232 2°54.2 18.7 10.8 22.8 10
2001-07-19 09:28:09 51°16.248 2°54.211 19.2 10.8 22.8 10
2001-07-19 09:28:13 51°16.259 2°54.219 19 10.8 23.2 10
2001-07-19 09:28:19 51°16.276 2°54.229 19.3 10.8 22.9 10
2001-07-19 09:28:23 51°16.287 2°54.237 19.2 10.8 22.9 10.1
2001-07-19 09:28:29 51°16.304 2°54.248 19 10.9 22.3 10.1
2001-07-19 09:28:33 51°16.315 2°54.255 19.2 10.9 22.4 10.2
2001-07-19 09:28:39 51°16.332 2°54.266 19 10.9 22.6 10.2
2001-07-19 09:28:43 51°16.343 2°54.274 19.7 11 23.2 10.1
2001-07-19 09:28:49 51°16.359 2°54.286 20.5 11 23.7 10
2001-07-19 09:28:53 51°16.37 2°54.294 21 11 24.1 10
2001-07-19 09:28:59 51°16.387 2°54.306 21 11 24.4 10
2001-07-19 09:29:03 51°16.398 2°54.314 21.3 11 24.4 10
2001-07-19 09:29:09 51°16.415 2°54.327 22.3 11 25.5 10.1
2001-07-19 09:29:13 51°16.426 2°54.336 22.5 11 25.8 10.2
2001-07-19 09:29:19 51°16.443 2°54.348 22.3 11.1 25.8 10.2
2001-07-19 09:29:23 51°16.453 2°54.358 22.8 11.1 26.5 10.2
2001-07-19 09:29:29 51°16.47 2°54.371 24 11.1 27.3 10.1
2001-07-19 09:29:33 51°16.48 2°54.38 24.5 11 27.8 10.1
2001-07-19 09:29:39 51°16.496 2°54.394 24.3 10.9 28.3 10.1
2001-07-19 09:29:45 51°16.512 2°54.408 25 10.9 29 10.1
2001-07-19 09:29:49 51°16.523 2°54.418 25.7 10.9 30.2 10
2001-07-19 09:29:53 51°16.533 2°54.428 26.8 10.9 30.7 10
2001-07-19 09:29:59 51°16.549 2°54.442 26.7 10.9 30.3 10.1
2001-07-19 09:30:03 51°16.559 2°54.453 26.5 11 30.8 10.2
2001-07-19 09:30:09 51°16.575 2°54.468 27.7 11 30.9 10.3
2001-07-19 09:30:13 51°16.586 2°54.477 27.2 11.1 30.9 10.3
2001-07-19 09:30:19 51°16.602 2°54.492 27.2 11.1 30.6 10.3
2001-07-19 09:30:23 51°16.612 2°54.502 26.7 11.1 30.4 10.2
2001-07-19 09:30:29 51°16.627 2°54.518 27.5 11 32 10
2001-07-19 09:30:33 51°16.638 2°54.529 29.2 11 32.9 9.9
2001-07-19 09:30:39 51°16.652 2°54.543 29.3 10.5 33.5 9.9
2001-07-19 09:30:43 51°16.661 2°54.553 28.5 10 33 10.1
2001-07-19 09:30:49 51°16.674 2°54.566 27.2 9.4 32.6 10.1
2001-07-19 09:30:53 51°16.681 2°54.575 25.7 8.8 34.4 9.9
2001-07-19 09:30:59 51°16.692 2°54.586 26.3 8 35.3 9.7
2001-07-19 09:31:03 51°16.699 2°54.594 25.5 7.6 34.5 9.9
2001-07-19 09:31:09 51°16.708 2°54.603 23.7 7.1 32.5 10.1
2001-07-19 09:31:13 51°16.715 2°54.609 21.7 6.8 31.6 10.4
2001-07-19 09:31:19 51°16.723 2°54.618 20 6.4 31.9 10.4
2001-07-19 09:31:23 51°16.728 2°54.624 19.5 6 32.8 10.4
2001-07-19 09:31:29 51°16.736 2°54.631 19 5.6 32.6 10.5
2001-07-19 09:31:33 51°16.741 2°54.636 17.7 5.3 32.5 10.6
2001-07-19 09:31:39 51°16.747 2°54.643 16.7 4.8 34.6 10.6
2001-07-19 09:31:43 51°16.751 2°54.648 16.3 4.4 36.4 10.5
2001-07-19 09:31:49 51°16.755 2°54.654 16.7 3.8 41.6 10.5
2001-07-19 09:31:53 51°16.757 2°54.658 20 3.4 46 10.4
2001-07-19 09:31:59 51°16.76 2°54.665 23.3 3 55.4 10.3
2001-07-19 09:32:03 51°16.761 2°54.669 26.2 2.7 60.8 10.2
2001-07-19 09:32:09 51°16.762 2°54.675 28 2.3 65.6 10.2
2001-07-19 09:32:13 51°16.763 2°54.678 29 2.1 69 10.3
2001-07-19 09:32:19 51°16.764 2°54.683 28.8 1.9 76.3 10.3
2001-07-19 09:32:23 51°16.764 2°54.686 29 1.8 82.1 10.4
2001-07-19 09:32:29 51°16.763 2°54.69 29.8 1.6 97 10.5
2001-07-19 09:32:35 51°16.761 2°54.693 31.5 1.5 112 -999
2001-07-19 09:32:40 51°16.76 2°54.695 33.7 1.6 128.8 -999
2001-07-19 09:32:45 51°16.759 2°54.698 36.7 1.5 129.1 -999
2001-07-19 09:32:50 51°16.757 2°54.701 38.8 1.5 125.9 -999
2001-07-19 09:32:55 51°16.756 2°54.704 41.2 1.5 123.4 -999
2001-07-19 09:33:00 51°16.755 2°54.706 43.7 1.4 120.2 -999
2001-07-19 09:33:05 51°16.755 2°54.709 45.5 1.3 113.4 -999
2001-07-19 09:33:10 51°16.754 2°54.712 47.3 1.4 107.3 9.9
2001-07-19 09:33:15 51°16.754 2°54.716 48.7 1.5 97.4 -999
2001-07-19 09:33:20 51°16.754 2°54.719 49.3 1.6 94.1 -999
2001-07-19 09:33:25 51°16.754 2°54.723 50.2 1.6 92 -999
2001-07-19 09:33:30 51°16.754 2°54.727 50.7 1.7 92.2 -999
2001-07-19 09:33:35 51°16.754 2°54.73 51 1.7 89.4 -999
2001-07-19 09:33:40 51°16.754 2°54.734 51.8 1.8 91.3 -999
2001-07-19 09:33:45 51°16.754 2°54.738 52.8 1.7 90.7 -999
2001-07-19 09:33:49 51°16.754 2°54.742 54.3 1.8 95.5 10.1
2001-07-19 09:33:53 51°16.754 2°54.744 56.3 1.8 93.6 9.9
2001-07-19 09:33:59 51°16.753 2°54.749 58 1.8 94.1 9.8
2001-07-19 09:34:03 51°16.754 2°54.752 59.3 1.8 92.1 9.8
2001-07-19 09:34:09 51°16.754 2°54.757 60.2 1.8 91 10
2001-07-19 09:34:13 51°16.754 2°54.76 61 1.8 89 10.2
2001-07-19 09:34:19 51°16.754 2°54.765 62 1.8 86.9 10.5
2001-07-19 09:34:23 51°16.754 2°54.768 62.3 1.8 86.5 10.6
2001-07-19 09:34:29 51°16.754 2°54.773 62.7 1.9 85.8 10.7
2001-07-19 09:34:33 51°16.754 2°54.777 63 1.9 85.5 10.7
2001-07-19 09:34:39 51°16.754 2°54.782 63.3 1.9 85.8 10.6
2001-07-19 09:34:43 51°16.755 2°54.785 63.2 1.9 85.5 10.5
2001-07-19 09:34:49 51°16.755 2°54.791 63.3 2 86.2 10.4
2001-07-19 09:34:53 51°16.755 2°54.794 63.5 2 85.5 10.4
2001-07-19 09:34:59 51°16.755 2°54.799 63.3 2 83.7 10.4
2001-07-19 09:35:03 51°16.756 2°54.803 63 2 82.5 10.4
2001-07-19 09:35:09 51°16.756 2°54.808 63.2 2 82.7 10.3
2001-07-19 09:35:13 51°16.756 2°54.812 63.2 2 82.6 10.3
2001-07-19 09:35:19 51°16.757 2°54.817 62.8 2 83.3 10.2
2001-07-19 09:35:23 51°16.757 2°54.821 62.3 2 83.5 10.2
2001-07-19 09:35:29 51°16.757 2°54.826 62 2 83.9 10.2
2001-07-19 09:35:33 51°16.758 2°54.829 62 2 83.3 10.2
2001-07-19 09:35:39 51°16.758 2°54.835 62 2 85.5 10.2
2001-07-19 09:35:43 51°16.758 2°54.838 62.3 2 84.8 10.2
2001-07-19 09:35:49 51°16.758 2°54.844 62.3 2.1 86.7 10.2
2001-07-19 09:35:53 51°16.758 2°54.848 62.5 2.1 87.3 10.2
2001-07-19 09:35:59 51°16.758 2°54.853 62.7 2.1 86.9 10.2
2001-07-19 09:36:03 51°16.759 2°54.857 62.5 2.1 85.4 10.3
2001-07-19 09:36:09 51°16.759 2°54.862 62.3 2.1 83.3 10.2
2001-07-19 09:36:13 51°16.759 2°54.866 61.8 2.1 83.3 10.3
2001-07-19 09:36:19 51°16.76 2°54.872 61.7 2.1 82.9 10.3
2001-07-19 09:36:23 51°16.76 2°54.875 61.2 2.1 82 10.3
2001-07-19 09:36:29 51°16.761 2°54.881 60.8 2.2 82.8 10.1
2001-07-19 09:36:33 51°16.761 2°54.885 60.2 2.2 85.5 10
2001-07-19 09:36:39 51°16.761 2°54.891 59.8 2.2 84 10
2001-07-19 09:36:43 51°16.761 2°54.895 59.5 2.1 81.5 10.1
2001-07-19 09:36:49 51°16.762 2°54.9 58.8 2.1 80.9 10.2
2001-07-19 09:36:53 51°16.762 2°54.904 58.2 2.1 80.1 10.2
2001-07-19 09:36:59 51°16.763 2°54.91 57.3 2.1 81.4 10.1
2001-07-19 09:37:03 51°16.763 2°54.913 57 2.1 80.3 10.1
2001-07-19 09:37:09 51°16.764 2°54.919 55.8 2.3 77.8 10.1
2001-07-19 09:37:13 51°16.765 2°54.924 54.7 2.5 77.1 10
2001-07-19 09:37:19 51°16.766 2°54.932 54.7 2.8 74.7 10
2001-07-19 09:37:23 51°16.768 2°54.937 54.5 3.1 71.8 10.1
2001-07-19 09:37:29 51°16.77 2°54.945 53.2 3.3 68 10.2
2001-07-19 09:37:33 51°16.772 2°54.951 51.7 3.5 66 10.2
2001-07-19 09:37:39 51°16.775 2°54.96 49 3.8 62.8 10.3
2001-07-19 09:37:43 51°16.777 2°54.966 47 4 60.9 10.3
2001-07-19 09:37:49 51°16.782 2°54.977 44.7 4.6 56.2 10.2
2001-07-19 09:37:53 51°16.786 2°54.985 40.7 5.2 52 10.3
2001-07-19 09:37:59 51°16.794 2°54.996 35.2 6.1 45.1 10.3
2001-07-19 09:38:03 51°16.801 2°55.004 29.3 6.6 40.5 10.2
2001-07-19 09:38:09 51°16.811 2°55.014 24.3 7.1 34.8 9.9
2001-07-19 09:38:13 51°16.818 2°55.02 19.2 7.3 29.8 9.9
2001-07-19 09:38:19 51°16.83 2°55.027 12.7 7.6 23.3 9.9
2001-07-19 09:38:23 51°16.839 2°55.031 7 7.8 18.1 10
2001-07-19 09:38:29 51°16.852 2°55.037 4.5 8.1 14.6 10.1
2001-07-19 09:38:33 51°16.862 2°55.04 2.5 8.3 12.7 10.3
2001-07-19 09:38:39 51°16.876 2°55.044 1 8.5 10.5 10.4
2001-07-19 09:38:43 51°16.886 2°55.046 359.7 8.9 9 10.4
2001-07-19 09:38:49 51°16.901 2°55.048 358.8 9.1 6.9 10.4
2001-07-19 09:38:53 51°16.911 2°55.05 357 9.2 5.7 10.4
2001-07-19 09:38:59 51°16.927 2°55.051 355.7 9.3 3.2 10.3
2001-07-19 09:39:03 51°16.938 2°55.051 353.5 9.4 1.9 10.2
2001-07-19 09:39:09 51°16.953 2°55.051 352 9.5 0.2 10.1
2001-07-19 09:39:13 51°16.964 2°55.051 351.2 9.5 359.2 10.1
2001-07-19 09:39:19 51°16.98 2°55.049 349.8 9.5 358 10.1
2001-07-19 09:39:23 51°16.99 2°55.048 349.2 9.6 356.5 10.1
2001-07-19 09:39:29 51°17.006 2°55.046 349.7 9.6 356.1 10.1
2001-07-19 09:39:33 51°17.017 2°55.045 350.3 9.7 356.6 10.1
2001-07-19 09:39:39 51°17.034 2°55.044 351.7 9.8 357.8 10.1
2001-07-19 09:39:43 51°17.045 2°55.044 353.2 9.9 358.8 10.1
2001-07-19 09:39:49 51°17.062 2°55.045 355 10.1 0.8 10
2001-07-19 09:39:53 51°17.073 2°55.046 356.8 10.1 1.8 9.9
2001-07-19 09:39:59 51°17.09 2°55.047 358.2 10.2 3.8 9.8
2001-07-19 09:40:03 51°17.101 2°55.05 0.3 10.3 5.3 9.7
2001-07-19 09:40:09 51°17.119 2°55.054 2.2 10.4 7.4 9.7
2001-07-19 09:40:13 51°17.13 2°55.057 3.5 10.5 8.5 9.6
2001-07-19 09:40:19 51°17.147 2°55.062 4.8 10.5 10.4 9.5
2001-07-19 09:40:23 51°17.159 2°55.066 5.7 10.5 10.8 9.3
2001-07-19 09:40:29 51°17.176 2°55.071 5.2 10.6 11 9.2
2001-07-19 09:40:33 51°17.187 2°55.074 4.5 10.6 10.2 9.2
2001-07-19 09:40:39 51°17.205 2°55.078 2.8 10.5 8.9 9.2
2001-07-19 09:40:43 51°17.216 2°55.08 0.7 10.5 7.1 9.2
2001-07-19 09:40:49 51°17.233 2°55.082 358.2 10.4 4.3 9.1
2001-07-19 09:40:53 51°17.245 2°55.083 355.8 10.3 2.4 9
2001-07-19 09:40:59 51°17.262 2°55.082 352.5 10.1 359.1 8.9
2001-07-19 09:41:03 51°17.273 2°55.08 350.2 10.1 357.2 8.9
2001-07-19 09:41:09 51°17.289 2°55.078 349.7 10 355.8 8.9
2001-07-19 09:41:13 51°17.3 2°55.077 349 9.7 355.2 8.9
2001-07-19 09:41:19 51°17.315 2°55.075 348.5 9.1 355.1 8.7
2001-07-19 09:41:23 51°17.324 2°55.074 347.3 8.6 355.2 8.7
2001-07-19 09:41:29 51°17.336 2°55.072 346.5 7.8 355.4 8.7
2001-07-19 09:41:33 51°17.344 2°55.071 345.2 7.3 355.3 8.5
2001-07-19 09:41:39 51°17.354 2°55.07 343.7 6.3 356.6 8.3
2001-07-19 09:41:43 51°17.36 2°55.07 343 5.6 358.1 8.1
2001-07-19 09:41:49 51°17.367 2°55.07 344.2 4.9 1 8.1
2001-07-19 09:41:53 51°17.372 2°55.072 347.5 4.5 4.6 7.8
2001-07-19 09:41:59 51°17.378 2°55.074 351.8 4 12.4 7.8
2001-07-19 09:42:03 51°17.382 2°55.077 357.8 3.7 18 7.8
2001-07-19 09:42:09 51°17.386 2°55.081 3.7 3.2 27.3 7.9
2001-07-19 09:42:13 51°17.388 2°55.084 9.3 2.9 35.5 7.7
2001-07-19 09:42:19 51°17.391 2°55.088 15.3 2.6 43 7.8
2001-07-19 09:42:23 51°17.392 2°55.092 20.3 2.3 50 7.8
2001-07-19 09:42:29 51°17.394 2°55.096 25.3 2.1 58.9 7.7
2001-07-19 09:42:33 51°17.395 2°55.1 29 2 63.1 7.8
2001-07-19 09:42:39 51°17.396 2°55.105 32.8 2 65.7 7.7
2001-07-19 09:42:43 51°17.397 2°55.108 36 2.1 67.9 7.6
2001-07-19 09:42:49 51°17.398 2°55.114 39.3 2.1 69 7.8
2001-07-19 09:42:53 51°17.399 2°55.117 42.2 2.1 69.2 7.7
2001-07-19 09:42:59 51°17.4 2°55.123 44.7 2.2 70 7.6
2001-07-19 09:43:05 51°17.401 2°55.128 46.8 2.2 70.9 7.7
2001-07-19 09:43:09 51°17.402 2°55.132 48.7 2.2 71.6 7.6
2001-07-19 09:43:13 51°17.403 2°55.136 50.5 2.2 72.8 7.6
2001-07-19 09:43:19 51°17.404 2°55.142 51.7 2.3 73 7.8
2001-07-19 09:43:23 51°17.404 2°55.145 52.7 2.3 74.1 7.9
2001-07-19 09:43:29 51°17.406 2°55.151 54 2.3 73.7 7.7
2001-07-19 09:43:33 51°17.406 2°55.155 54.2 2.3 72.2 7.8
2001-07-19 09:43:39 51°17.407 2°55.161 54 2.3 73.3 7.8
2001-07-19 09:43:43 51°17.408 2°55.165 53.3 2.3 71.6 7.8
2001-07-19 09:43:49 51°17.41 2°55.171 52.5 2.3 72.7 7.9
2001-07-19 09:43:53 51°17.41 2°55.174 51.5 2.3 73.8 7.8
2001-07-19 09:43:59 51°17.412 2°55.18 51.2 2.3 72.7 7.9
2001-07-19 09:44:03 51°17.412 2°55.184 50.2 2.4 74.1 8.1
2001-07-19 09:44:09 51°17.413 2°55.19 49.5 2.4 72.5 7.7
2001-07-19 09:44:13 51°17.414 2°55.194 49.2 2.4 71.5 7.7
2001-07-19 09:44:19 51°17.416 2°55.2 48.7 2.3 69 8
2001-07-19 09:44:23 51°17.416 2°55.204 47.5 2.3 67.9 8
2001-07-19 09:44:29 51°17.418 2°55.21 47 2.3 69.4 8.1
2001-07-19 09:44:33 51°17.418 2°55.213 46.2 2.3 70.6 8
2001-07-19 09:44:39 51°17.419 2°55.219 45.8 2.3 72.5 8.1
2001-07-19 09:44:43 51°17.42 2°55.223 45.5 2.2 73.8 8
2001-07-19 09:44:49 51°17.421 2°55.229 45.2 2.2 74.3 8
2001-07-19 09:44:53 51°17.422 2°55.232 44.8 2.2 72.3 8.1
2001-07-19 09:44:59 51°17.423 2°55.237 44.3 2.2 70.7 8
2001-07-19 09:45:03 51°17.424 2°55.241 43.5 2.2 71.2 8
2001-07-19 09:45:09 51°17.425 2°55.246 43 2.2 71.4 8
2001-07-19 09:45:13 51°17.426 2°55.25 42.5 2.1 70.4 8.1
2001-07-19 09:45:19 51°17.427 2°55.255 41.7 2.1 71.6 8.2
2001-07-19 09:45:23 51°17.428 2°55.259 41.3 2.1 71.8 8.1
2001-07-19 09:45:29 51°17.429 2°55.264 41.5 2.1 71.7 7.8
2001-07-19 09:45:33 51°17.43 2°55.268 41 2.1 73.2 8.1
2001-07-19 09:45:39 51°17.431 2°55.273 40.2 2.1 73.8 8
2001-07-19 09:45:43 51°17.432 2°55.276 40.3 2.1 74.3 8
2001-07-19 09:45:49 51°17.433 2°55.281 40.3 2.1 72.9 8.1
2001-07-19 09:45:53 51°17.433 2°55.285 39.3 2.1 72.8 8
2001-07-19 09:45:59 51°17.434 2°55.29 38.5 2.1 72.6 8
2001-07-19 09:46:03 51°17.435 2°55.294 37.7 2.1 72.8 8.3
2001-07-19 09:46:09 51°17.436 2°55.299 37.5 2 72.7 8.2
2001-07-19 09:46:13 51°17.437 2°55.302 37.3 2 73.5 8.2
2001-07-19 09:46:19 51°17.438 2°55.307 36.8 2 73.6 8.1
2001-07-19 09:46:23 51°17.438 2°55.311 36.7 2 73.1 8.2
2001-07-19 09:46:29 51°17.439 2°55.316 36.5 2 73.3 8.2
2001-07-19 09:46:33 51°17.44 2°55.319 36.7 2 74.5 8.2
2001-07-19 09:46:39 51°17.441 2°55.324 36.8 2 75.8 8.2
2001-07-19 09:46:43 51°17.441 2°55.328 37.3 2 77 8.1
2001-07-19 09:46:49 51°17.442 2°55.333 37.5 2 77.4 8.1
2001-07-19 09:46:53 51°17.442 2°55.337 37.8 2 77.9 8.1
2001-07-19 09:46:59 51°17.443 2°55.342 38.5 2.1 77.1 8
2001-07-19 09:47:03 51°17.444 2°55.345 38.7 2 75.3 8.1
2001-07-19 09:47:09 51°17.445 2°55.35 38.5 2.1 74.2 8.2
2001-07-19 09:47:13 51°17.446 2°55.354 38.3 2.1 73.5 8.2
2001-07-19 09:47:19 51°17.447 2°55.36 38.7 2.2 73.9 8.2
2001-07-19 09:47:23 51°17.448 2°55.363 39.3 2.2 72.6 8.2
2001-07-19 09:47:29 51°17.449 2°55.369 40.8 2.3 73.3 8.1
2001-07-19 09:47:33 51°17.45 2°55.374 42.2 2.4 72.7 8.1
2001-07-19 09:47:39 51°17.451 2°55.38 43.7 2.4 71.5 8.2
2001-07-19 09:47:43 51°17.452 2°55.384 45.5 2.5 69.8 8.3
2001-07-19 09:47:49 51°17.454 2°55.391 46.8 2.7 67.8 8.4
2001-07-19 09:47:53 51°17.455 2°55.395 48 2.7 67 8.4
2001-07-19 09:47:59 51°17.457 2°55.402 49.7 2.8 66.3 8.3
2001-07-19 09:48:03 51°17.458 2°55.407 51.2 2.9 66.1 8.3
2001-07-19 09:48:09 51°17.46 2°55.414 52.5 3 66.5 8.3
2001-07-19 09:48:13 51°17.462 2°55.419 53.8 3.1 65.8 8.3
2001-07-19 09:48:19 51°17.464 2°55.427 55.8 3.2 68.1 8.2
2001-07-19 09:48:23 51°17.465 2°55.433 58.3 3.2 68.6 8.1
2001-07-19 09:48:29 51°17.467 2°55.441 61.2 3.3 69.8 8
2001-07-19 09:48:33 51°17.468 2°55.446 64 3.3 71.3 8.1
2001-07-19 09:48:39 51°17.47 2°55.455 67.3 3.4 72.4 8.1
2001-07-19 09:48:43 51°17.471 2°55.461 69.8 3.5 72 8.1
2001-07-19 09:48:49 51°17.473 2°55.47 72 3.6 73.2 8.2
2001-07-19 09:48:53 51°17.474 2°55.477 74.3 3.6 74.1 8.3
2001-07-19 09:48:59 51°17.475 2°55.486 76.3 3.6 75.5 8.4
2001-07-19 09:49:03 51°17.476 2°55.492 79 3.7 77.5 8.4
2001-07-19 09:49:09 51°17.477 2°55.502 81.5 3.7 78.3 8.4
2001-07-19 09:49:13 51°17.478 2°55.508 84.3 3.7 80 8.5
2001-07-19 09:49:19 51°17.479 2°55.518 86.5 3.8 80.5 8.5
2001-07-19 09:49:23 51°17.479 2°55.525 88.7 3.8 82 8.5
2001-07-19 09:49:29 51°17.48 2°55.535 90.8 3.8 83 8.5
2001-07-19 09:49:33 51°17.48 2°55.542 93.3 3.8 85.8 8.5
2001-07-19 09:49:39 51°17.48 2°55.552 96.5 3.8 87.3 8.5
2001-07-19 09:49:43 51°17.48 2°55.558 99.5 3.8 89.1 8.6
2001-07-19 09:49:49 51°17.48 2°55.568 102.2 3.8 91.3 8.5
2001-07-19 09:49:53 51°17.48 2°55.575 105.7 3.8 93.3 8.5
2001-07-19 09:49:59 51°17.479 2°55.585 109.3 3.8 95.2 8.6
2001-07-19 09:50:05 51°17.478 2°55.595 112.7 3.7 96.7 8.6
2001-07-19 09:50:09 51°17.478 2°55.601 115.5 3.7 97.9 8.6
2001-07-19 09:50:13 51°17.477 2°55.607 118.3 3.6 99.5 8.7
2001-07-19 09:50:19 51°17.476 2°55.616 121.5 3.5 101.5 8.7
2001-07-19 09:50:23 51°17.475 2°55.622 124.5 3.4 102.3 8.7
2001-07-19 09:50:29 51°17.473 2°55.63 126.7 3.4 103.7 8.7
2001-07-19 09:50:33 51°17.472 2°55.636 129.3 3.3 104.9 8.7
2001-07-19 09:50:39 51°17.471 2°55.644 131.7 3.3 106.1 8.8
2001-07-19 09:50:43 51°17.47 2°55.65 133.7 3.3 107.4 8.8
2001-07-19 09:50:49 51°17.468 2°55.658 135 3.4 108.1 8.9
2001-07-19 09:50:53 51°17.467 2°55.664 136 3.4 108.8 8.9
2001-07-19 09:50:59 51°17.465 2°55.672 136.8 3.4 109.4 8.9
2001-07-19 09:51:03 51°17.464 2°55.678 137.3 3.4 109.5 8.9
2001-07-19 09:51:09 51°17.461 2°55.687 137.7 3.4 110.1 9
2001-07-19 09:51:13 51°17.46 2°55.692 138.2 3.4 111.1 9
2001-07-19 09:51:19 51°17.458 2°55.701 138.8 3.4 112.2 9
2001-07-19 09:51:23 51°17.456 2°55.706 139.5 3.4 112.5 9
2001-07-19 09:51:29 51°17.454 2°55.714 139.8 3.4 112.1 9.1
2001-07-19 09:51:33 51°17.453 2°55.72 140 3.4 111.9 9.1
2001-07-19 09:51:39 51°17.451 2°55.728 140.5 3.4 112.5 9.1
2001-07-19 09:51:43 51°17.449 2°55.734 140.8 3.4 112.3 9.2
2001-07-19 09:51:49 51°17.447 2°55.742 140.7 3.4 112.3 9.1
2001-07-19 09:51:53 51°17.446 2°55.748 140.7 3.4 112.3 9.2
2001-07-19 09:51:59 51°17.444 2°55.756 140.5 3.4 112.2 9.3
2001-07-19 09:52:03 51°17.442 2°55.762 140.3 3.4 112.3 9.3
2001-07-19 09:52:09 51°17.44 2°55.77 140.5 3.5 112.8 9.4
2001-07-19 09:52:13 51°17.438 2°55.776 141 3.4 113.2 9.4
2001-07-19 09:52:19 51°17.436 2°55.784 141.5 3.4 113.1 9.4
2001-07-19 09:52:23 51°17.435 2°55.79 141 3.4 113.1 9.4
2001-07-19 09:52:29 51°17.433 2°55.798 140.3 3.4 113.4 9.4
2001-07-19 09:52:33 51°17.431 2°55.804 140.3 3.4 113.3 9.4
2001-07-19 09:52:39 51°17.429 2°55.812 141.2 3.4 113.3 9.4
2001-07-19 09:52:43 51°17.427 2°55.818 141.3 3.5 113.2 9.5
2001-07-19 09:52:49 51°17.425 2°55.826 141.2 3.5 113.7 9.5
2001-07-19 09:52:53 51°17.423 2°55.832 141.5 3.5 113.8 9.5
2001-07-19 09:52:59 51°17.421 2°55.84 141.7 3.5 114.4 9.5
2001-07-19 09:53:03 51°17.419 2°55.846 142 3.5 114.4 9.5
2001-07-19 09:53:09 51°17.417 2°55.854 142.2 3.5 114.7 9.6
2001-07-19 09:53:13 51°17.415 2°55.86 142 3.6 114.4 9.6
2001-07-19 09:53:19 51°17.413 2°55.869 141.5 3.5 114.3 9.6
2001-07-19 09:53:23 51°17.411 2°55.875 141.7 3.6 114.7 9.6
2001-07-19 09:53:29 51°17.409 2°55.883 142 3.6 114.7 9.6
2001-07-19 09:53:33 51°17.407 2°55.889 141.5 3.5 114.3 9.7
2001-07-19 09:53:39 51°17.405 2°55.897 141.8 3.5 114.4 9.7
2001-07-19 09:53:43 51°17.403 2°55.903 141.7 3.5 113.9 9.6
2001-07-19 09:53:49 51°17.401 2°55.911 141.5 3.5 113.8 9.6
2001-07-19 09:53:53 51°17.399 2°55.917 142.3 3.4 114.2 9.6
2001-07-19 09:53:59 51°17.397 2°55.925 142.7 3.4 113.9 9.6
2001-07-19 09:54:03 51°17.396 2°55.93 142.5 3.4 113.8 9.6
2001-07-19 09:54:09 51°17.393 2°55.939 143 3.3 113.6 9.7
2001-07-19 09:54:13 51°17.392 2°55.944 143.2 3.3 112.8 9.7
2001-07-19 09:54:19 51°17.39 2°55.952 143.5 3.3 112.7 9.7
2001-07-19 09:54:23 51°17.389 2°55.957 144.2 3.3 112.5 9.8
2001-07-19 09:54:29 51°17.387 2°55.965 144.3 3.3 111.5 9.8
2001-07-19 09:54:33 51°17.385 2°55.971 144.8 3.2 111.7 9.8
2001-07-19 09:54:39 51°17.383 2°55.978 145 3.2 111.4 9.8
2001-07-19 09:54:43 51°17.382 2°55.984 145 3.2 111.4 9.8
2001-07-19 09:54:49 51°17.38 2°55.992 144.7 3.2 111 9.8
2001-07-19 09:54:54 51°17.379 2°55.998 144.5 3.2 111 9.8
2001-07-19 09:54:59 51°17.377 2°56.005 144.5 3.2 111.1 9.8
2001-07-19 09:55:03 51°17.376 2°56.01 144.8 3.1 111 9.8
2001-07-19 09:55:09 51°17.374 2°56.017 144.8 3.1 110.8 9.8
2001-07-19 09:55:13 51°17.373 2°56.022 144.3 3.1 110.6 9.8
2001-07-19 09:55:19 51°17.371 2°56.03 144.8 3 110.3 9.8
2001-07-19 09:55:23 51°17.37 2°56.034 145.3 3 110.4 9.8
2001-07-19 09:55:29 51°17.368 2°56.042 146 3 110.1 9.7
2001-07-19 09:55:33 51°17.367 2°56.047 145.8 3 109.2 9.7
2001-07-19 09:55:39 51°17.366 2°56.054 146.3 2.9 108.6 9.7
2001-07-19 09:55:43 51°17.365 2°56.059 147 2.9 108.1 9.8
2001-07-19 09:55:49 51°17.363 2°56.066 147.3 2.9 107.9 9.8
2001-07-19 09:55:53 51°17.362 2°56.071 148 2.8 107.7 9.8
2001-07-19 09:55:59 51°17.361 2°56.078 148.7 2.8 107 9.9
2001-07-19 09:56:03 51°17.36 2°56.082 148.7 2.8 106.8 9.8
2001-07-19 09:56:09 51°17.359 2°56.089 149.3 2.8 107.2 9.9
2001-07-19 09:56:13 51°17.358 2°56.094 149.5 2.8 106.7 9.9
2001-07-19 09:56:19 51°17.357 2°56.101 149.5 2.8 106.8 9.8
2001-07-19 09:56:23 51°17.356 2°56.106 149.5 2.8 105.7 9.7
2001-07-19 09:56:29 51°17.355 2°56.113 149.8 2.7 106.2 9.7
2001-07-19 09:56:33 51°17.354 2°56.117 150.5 2.7 106.1 9.7
2001-07-19 09:56:39 51°17.353 2°56.124 151.3 2.6 104.9 9.7
2001-07-19 09:56:43 51°17.352 2°56.128 151.7 2.6 104 9.7
2001-07-19 09:56:49 51°17.351 2°56.135 151.7 2.5 103.6 9.8
2001-07-19 09:56:53 51°17.351 2°56.139 151.3 2.5 103.2 9.8
2001-07-19 09:56:59 51°17.35 2°56.145 150.3 2.5 103.2 9.8
2001-07-19 09:57:03 51°17.349 2°56.15 149.7 2.5 102.2 9.8
2001-07-19 09:57:09 51°17.348 2°56.156 149 2.5 101.1 9.8
2001-07-19 09:57:13 51°17.348 2°56.16 148.8 2.5 100.8 9.8
2001-07-19 09:57:19 51°17.347 2°56.167 148 2.5 100 9.8
2001-07-19 09:57:23 51°17.347 2°56.171 148 2.5 100.4 9.8
2001-07-19 09:57:29 51°17.346 2°56.178 147.3 2.4 98.5 9.7
2001-07-19 09:57:33 51°17.346 2°56.182 146.5 2.4 96.1 9.8
2001-07-19 09:57:39 51°17.346 2°56.188 145.8 2.3 92.6 9.8
2001-07-19 09:57:43 51°17.346 2°56.191 145.7 2.2 90.9 9.8
2001-07-19 09:57:49 51°17.346 2°56.197 145.3 2.1 87.7 9.8
2001-07-19 09:57:53 51°17.346 2°56.201 145.3 2.1 84.4 9.8
2001-07-19 09:57:59 51°17.347 2°56.206 145.5 2 81.9 9.8
2001-07-19 09:58:03 51°17.347 2°56.209 145.7 2 79.9 9.8
2001-07-19 09:58:09 51°17.348 2°56.214 145.8 1.9 77.4 9.8
2001-07-19 09:58:13 51°17.349 2°56.217 145.8 1.9 75.8 9.8
2001-07-19 09:58:19 51°17.35 2°56.222 146 1.9 71.6 9.7
2001-07-19 09:58:23 51°17.351 2°56.225 145.5 1.9 68.8 9.7
2001-07-19 09:58:29 51°17.352 2°56.229 145.2 1.9 66.1 9.7
2001-07-19 09:58:33 51°17.353 2°56.232 144.8 1.9 64 9.7
2001-07-19 09:58:39 51°17.355 2°56.237 144.5 1.9 62.4 9.7
2001-07-19 09:58:43 51°17.356 2°56.24 144.2 1.9 61.2 9.7
2001-07-19 09:58:49 51°17.357 2°56.244 143.8 1.8 58.7 9.7
2001-07-19 09:58:53 51°17.358 2°56.246 143.3 1.8 56 9.8
2001-07-19 09:58:59 51°17.36 2°56.25 142.8 1.8 53.6 9.8
2001-07-19 09:59:03 51°17.362 2°56.253 142.3 1.8 51.6 9.8
2001-07-19 09:59:09 51°17.363 2°56.256 141.8 1.8 50.6 9.8
2001-07-19 09:59:14 51°17.365 2°56.259 141.5 1.8 49.5 9.8
2001-07-19 09:59:19 51°17.367 2°56.262 141.3 1.7 47.9 9.8
2001-07-19 09:59:23 51°17.368 2°56.264 141.3 1.7 46.3 -999
2001-07-19 09:59:29 51°17.37 2°56.267 140.8 1.7 44.3 -999
2001-07-19 09:59:35 51°17.372 2°56.27 140.7 1.8 42.6 -999
2001-07-19 09:59:40 51°17.374 2°56.273 140.5 1.7 41.8 -999
2001-07-19 09:59:45 51°17.376 2°56.275 140.3 1.7 40.7 -999
2001-07-19 09:59:50 51°17.378 2°56.278 140.3 1.8 39.4 -999
2001-07-19 09:59:55 51°17.38 2°56.28 140.3 1.8 36.3 -999
2001-07-19 10:00:00 51°17.382 2°56.282 139.8 1.8 33.6 -999
2001-07-19 10:00:05 51°17.384 2°56.284 139.8 1.8 29.2 -999
2001-07-19 10:00:09 51°17.386 2°56.285 140 1.8 25.9 -999
2001-07-19 10:00:15 51°17.389 2°56.287 140.7 1.8 24.5 -999
2001-07-19 10:00:20 51°17.391 2°56.289 141.2 1.8 25.4 -999
2001-07-19 10:00:25 51°17.393 2°56.291 141 1.8 26.4 -999
2001-07-19 10:00:29 51°17.395 2°56.292 141 1.9 26 -999
2001-07-19 10:00:35 51°17.398 2°56.294 141 1.9 23.4 -999
2001-07-19 10:00:40 51°17.401 2°56.295 140.7 1.9 20.8 -999
2001-07-19 10:00:45 51°17.404 2°56.297 140.5 2 20.6 -999
2001-07-19 10:00:49 51°17.406 2°56.298 140.2 1.9 23.1 -999
2001-07-19 10:00:55 51°17.408 2°56.301 140 1.9 27.9 -999
2001-07-19 10:00:59 51°17.41 2°56.303 139 1.8 34.8 -999
2001-07-19 10:01:05 51°17.412 2°56.306 137.5 1.7 43.4 -999
2001-07-19 10:01:10 51°17.413 2°56.309 135.7 1.7 51.9 -999
2001-07-19 10:01:15 51°17.414 2°56.313 133.3 1.8 63.8 -999
2001-07-19 10:01:19 51°17.414 2°56.317 130.2 2 72.7 -999
2001-07-19 10:01:25 51°17.415 2°56.323 126 2.3 79.5 -999
2001-07-19 10:01:29 51°17.415 2°56.328 120.5 2.6 83.7 -999
2001-07-19 10:01:35 51°17.415 2°56.336 114.8 2.9 86.5 -999
2001-07-19 10:01:40 51°17.415 2°56.344 109.2 3.2 87.8 -999
2001-07-19 10:01:45 51°17.416 2°56.352 103.8 3.7 87 -999
2001-07-19 10:01:49 51°17.417 2°56.36 96.3 4 84.7 -999
2001-07-19 10:01:55 51°17.418 2°56.371 88.8 4.3 81.4 9.5
2001-07-19 10:01:59 51°17.419 2°56.379 83.7 4.5 79.3 -999
2001-07-19 10:02:03 51°17.421 2°56.387 78.5 4.6 74.6 9.4
2001-07-19 10:02:09 51°17.423 2°56.399 71.2 4.9 70.4 9.6
2001-07-19 10:02:13 51°17.425 2°56.407 65.2 5 68.2 9.5
2001-07-19 10:02:19 51°17.43 2°56.42 59.5 5.2 62.7 9.5
2001-07-19 10:02:23 51°17.433 2°56.428 52.8 5.2 58.7 9.4
2001-07-19 10:02:29 51°17.439 2°56.439 45.5 5.3 52.8 9.5
2001-07-19 10:02:33 51°17.443 2°56.446 38.5 5.4 48.7 9.6
2001-07-19 10:02:39 51°17.45 2°56.455 31.8 5.4 42.9 9.7
2001-07-19 10:02:43 51°17.454 2°56.461 25.7 5.4 39.2 9.7
2001-07-19 10:02:49 51°17.462 2°56.469 19 5.4 33.7 9.8
2001-07-19 10:02:53 51°17.467 2°56.473 12.7 5.4 29.9 9.8
2001-07-19 10:02:59 51°17.476 2°56.478 6.3 5.3 24 9.8
2001-07-19 10:03:03 51°17.481 2°56.481   5.2 19.1 9.8
2001-07-19 10:03:09 51°17.489 2°56.483 353 5.1 14.5 9.7
2001-07-19 10:03:13 51°17.495 2°56.483 346.2 4.9 8.5 9.8
2001-07-19 10:03:19 51°17.502 2°56.483 339.3 4.6 2.3 9.7
2001-07-19 10:03:23 51°17.507 2°56.482 332.7 4.3 356.9 9.6
2001-07-19 10:03:29 51°17.513 2°56.48 326 4.1 351.1 9.6
2001-07-19 10:03:33 51°17.517 2°56.478 318.5 3.8 345.4 9.7
2001-07-19 10:03:39 51°17.522 2°56.473 310.3 3.6 335.4 9.7
2001-07-19 10:03:43 51°17.525 2°56.469 302.3 3.4 325.8 9.6
2001-07-19 10:03:49 51°17.529 2°56.463 293.8 3.2 318.1 9.6
2001-07-19 10:03:53 51°17.53 2°56.459 286 2.9 308 9.7
2001-07-19 10:03:59 51°17.531 2°56.453 277.7 2.5 292.6 9.6
2001-07-19 10:04:03 51°17.531 2°56.449 268.7 2.3 276.2 9.5
2001-07-19 10:04:09 51°17.53 2°56.443 259 2.2 261.9 9.3
2001-07-19 10:04:13 51°17.529 2°56.44 251.3 2.2 250.7 9.3
2001-07-19 10:04:19 51°17.526 2°56.434 244.3 2.4 237.1 9.3
2001-07-19 10:04:23 51°17.524 2°56.431 238.2 2.6 229.9 9.4
2001-07-19 10:04:29 51°17.52 2°56.426 232.3 2.9 221 9.5
2001-07-19 10:04:33 51°17.517 2°56.423 227.2 3.2 215.5 9.6
2001-07-19 10:04:39 51°17.512 2°56.418 225 3.5 211.9 9.7
2001-07-19 10:04:43 51°17.508 2°56.414 224.7 3.7 210.6 9.7
2001-07-19 10:04:49 51°17.503 2°56.409 224.5 3.9 211.1 9.8
2001-07-19 10:04:54 51°17.498 2°56.404 224.8 4.1 211.8 9.8
2001-07-19 10:04:59 51°17.493 2°56.398 225.8 4.2 215.9 9.8
2001-07-19 10:05:03 51°17.489 2°56.393 228 4.3 217.5 9.8
2001-07-19 10:05:09 51°17.484 2°56.386 229.3 4.4 219.6 9.7
2001-07-19 10:05:13 51°17.48 2°56.381 231.3 4.4 221.3 9.7
2001-07-19 10:05:19 51°17.475 2°56.373 233.7 4.1 222.8 9.7
2001-07-19 10:05:23 51°17.472 2°56.368 235.2 4 224.6 9.6
2001-07-19 10:05:29 51°17.468 2°56.361 236.8 3.8 226.5 9.6
2001-07-19 10:05:34 51°17.465 2°56.355 238.3 3.6 228.5 9.6
2001-07-19 10:05:39 51°17.462 2°56.349 240.3 3.5 231.3 9.6
2001-07-19 10:05:43 51°17.46 2°56.345 242.3 3.3 232.5 9.7
2001-07-19 10:05:49 51°17.457 2°56.338 243.3 3.2 234.1 9.7
2001-07-19 10:05:53 51°17.455 2°56.334 244.3 3.1 235.2 9.6
2001-07-19 10:05:59 51°17.453 2°56.327 246.2 3 237.2 9.6
2001-07-19 10:06:03 51°17.451 2°56.322 248 2.9 240.2 9.6
2001-07-19 10:06:09 51°17.449 2°56.316 249.8 2.7 242.3 9.7
2001-07-19 10:06:14 51°17.447 2°56.311 251 2.6 241.6 9.7
2001-07-19 10:06:19 51°17.446 2°56.306 252.5 2.5 244.4 9.7
2001-07-19 10:06:23 51°17.445 2°56.302 253.5 2.4 245.5 9.8
2001-07-19 10:06:29 51°17.444 2°56.296 255.3 2.4 249.5 9.8
2001-07-19 10:06:33 51°17.443 2°56.292 257.2 2.3 249 9.6
2001-07-19 10:06:39 51°17.442 2°56.287 258.8 2.2 251.2 9.4
2001-07-19 10:06:43 51°17.442 2°56.283 259.2 2 254.8 9.4
2001-07-19 10:06:49 51°17.441 2°56.278 259.5 2 257.4 9.5
2001-07-19 10:06:53 51°17.44 2°56.275 259.3 2 256.8 9.7
2001-07-19 10:06:59 51°17.44 2°56.27 258.2 2 256.6 9.9
2001-07-19 10:07:03 51°17.439 2°56.266 256.2 2 254.2 10
2001-07-19 10:07:09 51°17.437 2°56.262 253.5 2 248.5 10
2001-07-19 10:07:13 51°17.437 2°56.258 250.5 2 245.6 10
2001-07-19 10:07:19 51°17.435 2°56.254 247.7 1.9 237.9 10
2001-07-19 10:07:23 51°17.433 2°56.251 244.5 2 232.8 10
2001-07-19 10:07:29 51°17.431 2°56.247 241.8 2 226.8 9.8
2001-07-19 10:07:33 51°17.429 2°56.245 238.2 2.1 222.1 9.7
2001-07-19 10:07:39 51°17.426 2°56.242 235.2 2.1 217.5 9.8
2001-07-19 10:07:43 51°17.424 2°56.24 232.5 2.1 214 9.9
2001-07-19 10:07:49 51°17.421 2°56.238 229.5 2.1 209.6 10
2001-07-19 10:07:53 51°17.419 2°56.235 228.3 2.1 208.8 10.1
2001-07-19 10:07:59 51°17.415 2°56.233 228.3 2.2 206.8 10.1
2001-07-19 10:08:03 51°17.413 2°56.231 228 2.3 202.2 9.8
2001-07-19 10:08:09 51°17.409 2°56.229 226.3 2.3 202.1 9.7
2001-07-19 10:08:13 51°17.407 2°56.228 225.7 2.4 201 9.7
2001-07-19 10:08:19 51°17.403 2°56.225 225.3 2.4 201.3 9.7
2001-07-19 10:08:23 51°17.401 2°56.224 225.8 2.4 202 9.8
2001-07-19 10:08:29 51°17.397 2°56.221 226.3 2.4 202.8 9.8
2001-07-19 10:08:33 51°17.395 2°56.22 226.5 2.4 201 9.7
2001-07-19 10:08:39 51°17.391 2°56.217 226.2 2.4 202.2 9.7
2001-07-19 10:08:43 51°17.388 2°56.216 226.5 2.4 203.4 9.8
2001-07-19 10:08:49 51°17.385 2°56.213 227.5 2.4 204.6 9.8
2001-07-19 10:08:53 51°17.383 2°56.211 229 2.4 204.3 9.9
2001-07-19 10:08:59 51°17.379 2°56.208 231.2 2.3 208 9.9
2001-07-19 10:09:03 51°17.377 2°56.206 232 2.3 207.8 9.9
2001-07-19 10:09:09 51°17.374 2°56.203 232.7 2.2 210.7 10
2001-07-19 10:09:13 51°17.372 2°56.201 233.2 2.2 212.3 10
2001-07-19 10:09:19 51°17.369 2°56.198 233.8 2.2 215.2 10.1
2001-07-19 10:09:23 51°17.367 2°56.195 234.8 2.2 215.7 10.1
2001-07-19 10:09:29 51°17.364 2°56.192 236 2.2 217.7 10
2001-07-19 10:09:35 51°17.361 2°56.188 236.2 2.2 217.1 10
2001-07-19 10:09:39 51°17.359 2°56.186 236.3 2.2 216.4 9.9
2001-07-19 10:09:43 51°17.357 2°56.184 236.8 2.1 217.3 9.8
2001-07-19 10:09:49 51°17.355 2°56.18 237.7 2 217.8 9.8
2001-07-19 10:09:53 51°17.353 2°56.178 238.5 1.9 218.5 9.8
2001-07-19 10:09:59 51°17.351 2°56.176 239.5 1.7 218.2 9.9
2001-07-19 10:10:03 51°17.35 2°56.174 240.7 1.6 220.7 9.9
2001-07-19 10:10:09 51°17.348 2°56.171 241.7 1.4 221.3 9.9
2001-07-19 10:10:13 51°17.347 2°56.17 242.7 1.4 221.3 9.9
2001-07-19 10:10:19 51°17.346 2°56.168 244.2 1.2 221.9 9.9
2001-07-19 10:10:23 51°17.345 2°56.167 245.2 1.1 219.8 9.9
2001-07-19 10:10:29 51°17.344 2°56.165 246.8 1 223.6 9.9
2001-07-19 10:10:33 51°17.343 2°56.164 248.2 0.9 222.8 9.9
2001-07-19 10:10:39 51°17.342 2°56.163 250 0.8 222 9.9
2001-07-19 10:10:43 51°17.342 2°56.162 251.2 0.7 225.4 9.9
2001-07-19 10:10:49 51°17.341 2°56.16 252.3 0.5 230.9 9.9
2001-07-19 10:10:53 51°17.341 2°56.16 253.8 0.5 230.8 10
2001-07-19 10:10:59 51°17.34 2°56.159 254.7 0.4 226.9 10
2001-07-19 10:11:03 51°17.34 2°56.159 255 0.3 220.5 9.9
2001-07-19 10:11:09 51°17.34 2°56.158 256.2 0.2 224.9 10
2001-07-19 10:11:13 51°17.34 2°56.158 257.7 0.2 232.6 10
2001-07-19 10:11:19 51°17.34 2°56.158 258.8 0.1 269.4 9.9
2001-07-19 10:11:23 51°17.34 2°56.158 260.2 0.1 273.4 9.9
2001-07-19 10:11:29 51°17.34 2°56.158 261.3   348.8 9.8
2001-07-19 10:11:33 51°17.34 2°56.158 262 0.1 83.4 9.8
2001-07-19 10:11:39 51°17.34 2°56.158 262.5 0.2 58.5 9.8
2001-07-19 10:11:43 51°17.341 2°56.159 262.8 0.2 46.4 9.9
2001-07-19 10:11:49 51°17.341 2°56.159 263.7 0.2 50.2 10
2001-07-19 10:11:53 51°17.341 2°56.16 263.8 0.2 51.7 10.1
2001-07-19 10:11:59 51°17.341 2°56.16 264.2 0.3 47.4 10.1
2001-07-19 10:12:03 51°17.342 2°56.16 264.5 0.3 43.2 10.1
2001-07-19 10:12:09 51°17.342 2°56.161 264.5 0.3 49.6 10
2001-07-19 10:12:13 51°17.342 2°56.162 264.3 0.3 52.1 10
2001-07-19 10:12:19 51°17.343 2°56.162 263.8 0.4 48.3 10
2001-07-19 10:12:23 51°17.343 2°56.163 263.3 0.3 60.9 9.9
2001-07-19 10:12:29 51°17.343 2°56.164 263.2 0.3 71.5 9.9
2001-07-19 10:12:33 51°17.343 2°56.165 262.3 0.4 67.8 9.8
2001-07-19 10:12:39 51°17.343 2°56.166 261.7 0.5 77.6 9.7
2001-07-19 10:12:43 51°17.343 2°56.167 261.2 0.5 83.1 9.8
2001-07-19 10:12:49 51°17.343 2°56.168 260.7 0.5 82.8 9.9
2001-07-19 10:12:53 51°17.344 2°56.169 260.5 0.5 83 10
2001-07-19 10:12:59 51°17.344 2°56.17 259.8 0.5 85.8 9.9
2001-07-19 10:13:03 51°17.344 2°56.171 259 0.5 83.6 9.9
2001-07-19 10:13:09 51°17.343 2°56.172 259.3 0.6 86.7 9.9
2001-07-19 10:13:13 51°17.343 2°56.174 259 0.6 86.6 9.9
2001-07-19 10:13:19 51°17.344 2°56.175 259 0.6 80.3 9.9
2001-07-19 10:13:23 51°17.343 2°56.176 258.7 0.6 88.3 9.8
2001-07-19 10:13:29 51°17.344 2°56.178 257.3 0.7 90.2 9.8
2001-07-19 10:13:33 51°17.344 2°56.179 256.5 0.7 89.1 9.9
2001-07-19 10:13:39 51°17.344 2°56.181 255.7 0.7 89 9.9
2001-07-19 10:13:43 51°17.344 2°56.182 255.5 0.7 85.8 10
2001-07-19 10:13:49 51°17.345 2°56.184 255.5 0.7 81.9 10
2001-07-19 10:13:53 51°17.345 2°56.185 255.5 0.6 83.1 10.1
2001-07-19 10:13:59 51°17.345 2°56.187 255 0.6 86.9 10
2001-07-19 10:14:03 51°17.345 2°56.188 255.2 0.6 90.8 10
2001-07-19 10:14:09 51°17.345 2°56.19 255.5 0.6 84.5 9.9
2001-07-19 10:14:13 51°17.345 2°56.191 255.8 0.6 76.5 9.8
2001-07-19 10:14:19 51°17.345 2°56.192 255.8 0.6 80.3 9.5
2001-07-19 10:14:23 51°17.345 2°56.193 255.2 0.6 79.9 9.6
2001-07-19 10:14:29 51°17.344 2°56.195 254.3 0.6 86.2 9.7
2001-07-19 10:14:33 51°17.344 2°56.196 254 0.6 88.4 9.8
2001-07-19 10:14:39 51°17.344 2°56.197 253.3 0.6 86.7 9.9
2001-07-19 10:14:43 51°17.344 2°56.199 252.7 0.6 85 10
2001-07-19 10:14:49 51°17.344 2°56.2 252 0.7 91.1 9.9
2001-07-19 10:14:53 51°17.344 2°56.201 251 0.7 89.5 9.9
2001-07-19 10:14:59 51°17.344 2°56.203 250 0.7 89.9 9.9
2001-07-19 10:15:03 51°17.343 2°56.204 249.2 0.7 88.4 10
2001-07-19 10:15:09 51°17.343 2°56.206 249 0.7 84.6 10.1
2001-07-19 10:15:13 51°17.344 2°56.207 248.7 0.6 86 10.1
2001-07-19 10:15:19 51°17.344 2°56.209 248 0.6 88.3 10.1
2001-07-19 10:15:23 51°17.344 2°56.21 247 0.6 99.7 10
2001-07-19 10:15:29 51°17.344 2°56.211 245.8 0.6 109.7 9.9
2001-07-19 10:15:33 51°17.343 2°56.212 244.8 0.6 111 9.9
2001-07-19 10:15:39 51°17.343 2°56.213 244 0.6 115.4 9.9
2001-07-19 10:15:43 51°17.343 2°56.214 242.7 0.6 114.9 10
2001-07-19 10:15:49 51°17.342 2°56.216 241.5 0.6 123.3 10
2001-07-19 10:15:53 51°17.342 2°56.216 240 0.6 133.2 10.1
2001-07-19 10:15:59 51°17.341 2°56.217 237.8 0.6 143.2 10
2001-07-19 10:16:03 51°17.34 2°56.217 237 0.7 149.9 9.9
2001-07-19 10:16:09 51°17.339 2°56.218 236.2 0.6 156.9 10
2001-07-19 10:16:13 51°17.338 2°56.218 236.5 0.6 163 9.9
2001-07-19 10:16:19 51°17.337 2°56.218 237.7 0.6 174.3 10
2001-07-19 10:16:23 51°17.336 2°56.218 239.2 0.7 179.5 9.9
2001-07-19 10:16:29 51°17.335 2°56.218 240.5 0.8 186.5 9.9
2001-07-19 10:16:33 51°17.333 2°56.218 241.8 0.9 188.5 9.7
2001-07-19 10:16:39 51°17.333 2°56.217 243.2 0.8 197.6 9.6
2001-07-19 10:16:43 51°17.332 2°56.216 245.3 0.9 205.9 9.6
2001-07-19 10:16:49 51°17.331 2°56.214 247.3 0.9 220.6 9.7
2001-07-19 10:16:53 51°17.33 2°56.212 249.5 1 233.2 9.8
2001-07-19 10:16:59 51°17.33 2°56.209 251.8 1.1 242.5 10
2001-07-19 10:17:03 51°17.329 2°56.207 254.3 1.2 247.3 10.1
2001-07-19 10:17:09 51°17.328 2°56.204 256.7 1.3 249.8 10
2001-07-19 10:17:13 51°17.328 2°56.202 258 1.4 249.9 9.9
2001-07-19 10:17:19 51°17.327 2°56.198 258.3 1.5 250.3 9.9
2001-07-19 10:17:23 51°17.326 2°56.195 258.7 1.6 252.1 9.9
2001-07-19 10:17:29 51°17.325 2°56.191 259.2 1.6 253.6 10
2001-07-19 10:17:33 51°17.325 2°56.188 260.2 1.7 257.7 10
2001-07-19 10:17:39 51°17.325 2°56.183 261.3 1.8 262.5 10.1
2001-07-19 10:17:43 51°17.325 2°56.179 262.8 1.9 264.8 10.2
2001-07-19 10:17:49 51°17.324 2°56.174 264.3 2 266.8 10.1
2001-07-19 10:17:55 51°17.325 2°56.169 266.2 2 271.3 10.1
2001-07-19 10:17:59 51°17.325 2°56.166 269.2 1.9 274.3 10.1
2001-07-19 10:18:03 51°17.325 2°56.162 272.2 1.9 276.5 9.9
2001-07-19 10:18:09 51°17.326 2°56.158 274.7 1.8 283.6 9.8
2001-07-19 10:18:13 51°17.327 2°56.155 277.8 1.7 289.1 9.9
2001-07-19 10:18:19 51°17.329 2°56.151 281.7 1.7 300 9.9
2001-07-19 10:18:23 51°17.33 2°56.149 285 1.6 308.4 10
2001-07-19 10:18:29 51°17.332 2°56.147 287.3 1.5 314.8 10.1
2001-07-19 10:18:33 51°17.333 2°56.145 289.5 1.5 321.2 10.1
2001-07-19 10:18:39 51°17.335 2°56.143 291.3 1.5 329.2 10.1
2001-07-19 10:18:43 51°17.337 2°56.142 293 1.4 332.9 10.2
2001-07-19 10:18:49 51°17.339 2°56.141 294 1.4 340.6 10.1
2001-07-19 10:18:53 51°17.34 2°56.141 294.7 1.3 346.9 10.1
2001-07-19 10:18:59 51°17.342 2°56.141 294.5 1.1 357.2 9.9
2001-07-19 10:19:03 51°17.343 2°56.141 294.2 1 2.4 9.9
2001-07-19 10:19:09 51°17.344 2°56.142 293.2 0.9 12.8 9.9
2001-07-19 10:19:13 51°17.345 2°56.142 292.2 0.9 19.2 9.9
2001-07-19 10:19:19 51°17.347 2°56.143 291.2 0.9 26.5 10
2001-07-19 10:19:23 51°17.347 2°56.144 290.3 0.9 29.6 10.1
2001-07-19 10:19:29 51°17.349 2°56.146 289.5 0.9 36.3 10.1
2001-07-19 10:19:33 51°17.35 2°56.147 288.2 0.9 41.5 10.1
2001-07-19 10:19:39 51°17.351 2°56.149 287.2 1 45.9 10.1
2001-07-19 10:19:43 51°17.351 2°56.15 286.5 1 49.4 10.1
2001-07-19 10:19:49 51°17.352 2°56.152 284.7 1 54 10.1
2001-07-19 10:19:53 51°17.353 2°56.154 282.8 1 56 10
2001-07-19 10:19:59 51°17.354 2°56.156 281.7 1 61 10
2001-07-19 10:20:03 51°17.354 2°56.158 280 1 62.9 10
2001-07-19 10:20:09 51°17.355 2°56.16 278.3 1 65.5 10
2001-07-19 10:20:13 51°17.355 2°56.162 276.7 1.1 69.2 10
2001-07-19 10:20:19 51°17.356 2°56.165 274.8 1.1 73.7 10
2001-07-19 10:20:23 51°17.356 2°56.167 272.5 1.1 74.9 9.9
2001-07-19 10:20:29 51°17.357 2°56.17 270.3 1.1 75.4 9.9
2001-07-19 10:20:33 51°17.357 2°56.172 268.5 1.1 77.3 9.8
2001-07-19 10:20:39 51°17.357 2°56.175 266.8 1.2 78.8 9.9
2001-07-19 10:20:43 51°17.357 2°56.177 265 1.2 80 9.9
2001-07-19 10:20:49 51°17.358 2°56.18 263.2 1.2 82 9.9
2001-07-19 10:20:53 51°17.358 2°56.182 261.7 1.2 81.3 9.9
2001-07-19 10:20:59 51°17.358 2°56.185 260 1.2 83.1 9.9
2001-07-19 10:21:03 51°17.358 2°56.187 258.5 1.2 86.3 9.9
2001-07-19 10:21:09 51°17.358 2°56.19 257.7 1.2 86.2 9.8
2001-07-19 10:21:13 51°17.358 2°56.192 256.3 1.2 85.9 9.9
2001-07-19 10:21:19 51°17.358 2°56.196 255.2 1.3 88.5 9.9
2001-07-19 10:21:23 51°17.358 2°56.198 253.3 1.3 91.5 9.8
2001-07-19 10:21:29 51°17.358 2°56.202 251.5 1.3 91.1 9.7
2001-07-19 10:21:35 51°17.358 2°56.205 249.8 1.3 91.3 9.8
2001-07-19 10:21:39 51°17.358 2°56.207 247.8 1.3 90.9 9.9
2001-07-19 10:21:43 51°17.358 2°56.21 245.8 1.3 90.3 10
2001-07-19 10:21:49 51°17.358 2°56.213 244.2 1.3 89.4 10.1
2001-07-19 10:21:53 51°17.358 2°56.215 243 1.3 91.9 10.1
2001-07-19 10:21:59 51°17.358 2°56.218 241.3 1.2 94.5 10.2
2001-07-19 10:22:03 51°17.358 2°56.221 240 1.2 97.1 10.2
2001-07-19 10:22:09 51°17.357 2°56.223 238.7 1.1 98.6 10.1
2001-07-19 10:22:13 51°17.357 2°56.225 238 1.1 100.4 10.1
2001-07-19 10:22:19 51°17.357 2°56.228 237.5 1 102.8 10
2001-07-19 10:22:23 51°17.356 2°56.229 237.3 1 109.2 9.8
2001-07-19 10:22:29 51°17.356 2°56.231 237.2 0.9 119.5 9.7
2001-07-19 10:22:33 51°17.355 2°56.232 236.8 0.9 129.5 9.6
2001-07-19 10:22:39 51°17.354 2°56.233 237.7 0.8 139.6 9.6
2001-07-19 10:22:43 51°17.353 2°56.234 238.3 0.7 147.1 9.6
2001-07-19 10:22:49 51°17.352 2°56.234 239.3 0.7 163 9.7
2001-07-19 10:22:53 51°17.352 2°56.233 239.8 0.6 178.7 9.9
2001-07-19 10:22:59 51°17.35 2°56.233 241 0.7 195.9 10
2001-07-19 10:23:03 51°17.35 2°56.232 242.8 0.8 203.5 10.1
2001-07-19 10:23:09 51°17.348 2°56.231 243.7 0.9 208.3 10.1
2001-07-19 10:23:13 51°17.347 2°56.229 244.2 1 215 10.1
2001-07-19 10:23:19 51°17.346 2°56.227 244.7 1.2 223.2 10.1
2001-07-19 10:23:23 51°17.345 2°56.225 245.5 1.4 229 10.1
2001-07-19 10:23:29 51°17.343 2°56.22 245.8 1.7 234.2 10.1
2001-07-19 10:23:33 51°17.342 2°56.217 246.5 1.9 236.7 10
2001-07-19 10:23:39 51°17.34 2°56.212 247.5 2.3 239.9 10
2001-07-19 10:23:43 51°17.339 2°56.208 248.7 2.4 243 10
2001-07-19 10:23:49 51°17.337 2°56.201 249.8 2.7 244 9.9
2001-07-19 10:23:53 51°17.335 2°56.197 249.5 2.8 244.2 9.8
2001-07-19 10:23:59 51°17.333 2°56.189 250.5 3 245.5 9.8
2001-07-19 10:24:03 51°17.332 2°56.184 253.2 3 248.4 9.8
2001-07-19 10:24:09 51°17.331 2°56.176 255.8 3.1 253.9 9.7
2001-07-19 10:24:13 51°17.33 2°56.171 259.3 3.1 258 9.8
2001-07-19 10:24:19 51°17.33 2°56.162 263.5 3.2 263.1 9.9
2001-07-19 10:24:23 51°17.33 2°56.156 266.5 3.2 267 10
2001-07-19 10:24:29 51°17.33 2°56.147 269 3.3 272.4 10.1
2001-07-19 10:24:33 51°17.331 2°56.141 272.2 3.4 277.3 10.2
2001-07-19 10:24:39 51°17.333 2°56.132 276 3.5 281.8 10.2
2001-07-19 10:24:43 51°17.334 2°56.126 278.3 3.5 284 10.1
2001-07-19 10:24:49 51°17.335 2°56.117 279.8 3.6 286.1 10.1
2001-07-19 10:24:53 51°17.337 2°56.111 279.5 3.6 287.7 10.1
2001-07-19 10:24:59 51°17.338 2°56.102 279.3 3.6 288.2 10.1
2001-07-19 10:25:03 51°17.34 2°56.096 279.3 3.5 288.8 10.1
2001-07-19 10:25:09 51°17.341 2°56.088 279.7 3.2 288.7 10.1
2001-07-19 10:25:13 51°17.342 2°56.084 279 3 288.8 10.1
2001-07-19 10:25:19 51°17.344 2°56.077 278 2.7 288.4 10.1
2001-07-19 10:25:23 51°17.345 2°56.073 277.2 2.4 288.8 10.2
2001-07-19 10:25:29 51°17.346 2°56.068 276.7 2.2 289.3 10.2
2001-07-19 10:25:33 51°17.347 2°56.065 276.7 2.1 290.1 10.2
2001-07-19 10:25:39 51°17.348 2°56.061 276.5 1.8 291.5 10.2
2001-07-19 10:25:43 51°17.349 2°56.058 276.3 1.6 294.9 10.1
2001-07-19 10:25:49 51°17.35 2°56.056 276.2 1.3 297.3 10